South Amboy, New Jersey
Current Conditions -  °F | °C
As of 10:35 AM on Monday 24 Nov 2014 (Local Time) from KLDJ Reporting Station
Broken Clouds Broken Clouds  
Wind Chill: 73°   Ceiling: 4200
Heat Index: 73°   Visibility: 10mi
Dew Point: 65°   Wind: 6mph
Humidity: 77%   Direction: 220°SW
Pressure: 29.68"   Gusts: NA
Location:  40.48°N, 74.28°W
Report Text: KLDJ 241535Z AUTO 22005KT 10SM SCT026 SCT034 BKN042 23/18 A2968 RMK AO2 T02270184
Loading
Personal Weather Stations






























Interactive Weather Map New forecast layout! Learn more

10-Day Weather Forecast

Advertisements
Track Severe Weather on mobile